Time;durP1;ratioP1;P1;durP2;ratioP2;P2;SDS_P1;SDS_P2;PMS_P1;PMS_P2;Temp;Humidity;BMP_temperature;BMP_pressure;BME280_temperature;BME280_humidity;BME280_pressure;Samples;Min_cycle;Max_cycle;Signal;HPM_P1;HPM_P2
2021/07/11 00:01:19;;;;;;;;;5.00;5.00;;;;;23.38;50.40;101341.53;5056335;28;51576;-46
2021/07/11 00:03:45;;;;;;;;;4.50;4.50;;;;;23.37;50.09;101345.34;5065376;28;51124;-49
2021/07/11 00:06:10;;;;;;;;;4.25;4.25;;;;;23.35;50.42;101347.50;5076422;28;51478;-49
2021/07/11 00:08:36;;;;;;;;;3.75;3.75;;;;;23.33;50.72;101342.19;5067641;28;51446;-49
2021/07/11 00:11:01;;;;;;;;;6.00;4.25;;;;;23.31;50.08;101343.50;5065641;28;51434;-48
2021/07/11 00:13:26;;;;;;;;;6.00;4.00;;;;;23.31;50.57;101349.88;5070159;28;52185;-48
2021/07/11 00:15:52;;;;;;;;;7.50;6.75;;;;;23.31;50.84;101349.03;5074190;28;51146;-45
2021/07/11 00:18:17;;;;;;;;;6.75;6.75;;;;;23.29;50.50;101351.19;5072606;28;51123;-47
2021/07/11 00:20:42;;;;;;;;;4.00;4.00;;;;;23.27;50.71;101342.28;5076301;28;51128;-47
2021/07/11 00:23:08;;;;;;;;;3.75;3.75;;;;;23.26;50.79;101341.44;5075871;28;51876;-44
2021/07/11 00:25:33;;;;;;;;;4.00;3.75;;;;;23.23;50.96;101339.09;5076336;28;51151;-50
2021/07/11 00:27:58;;;;;;;;;3.25;3.00;;;;;23.24;50.73;101329.78;5076339;28;51001;-51
2021/07/11 00:30:25;;;;;;;;;3.00;2.75;;;;;23.22;50.56;101331.91;5076433;28;51134;-48
2021/07/11 00:32:52;;;;;;;;;6.00;5.00;;;;;23.21;50.41;101329.38;5076001;28;50998;-51
2021/07/11 00:35:18;;;;;;;;;4.00;4.00;;;;;23.20;50.98;101333.19;5076079;28;51292;-51
2021/07/11 00:37:43;;;;;;;;;4.00;4.00;;;;;23.19;50.51;101326.84;5076092;28;51094;-51
2021/07/11 00:40:10;;;;;;;;;3.00;3.00;;;;;23.17;50.37;101317.94;5076348;28;51143;-49
2021/07/11 00:42:36;;;;;;;;;4.00;4.00;;;;;23.17;50.94;101331.75;5076018;28;51856;-47
2021/07/11 00:45:03;;;;;;;;;3.75;3.75;;;;;23.16;50.97;101327.31;5076183;28;51241;-49
2021/07/11 00:47:29;;;;;;;;;5.00;4.00;;;;;23.16;50.86;101324.53;5076088;28;51026;-50
2021/07/11 00:49:55;;;;;;;;;4.75;4.75;;;;;23.16;50.87;101323.69;5076591;28;50993;-49
2021/07/11 00:52:20;;;;;;;;;5.00;3.50;;;;;23.15;50.88;101322.84;5057208;28;54119;-50
2021/07/11 00:54:45;;;;;;;;;3.50;3.50;;;;;23.14;51.14;101318.41;5075932;28;50972;-50
2021/07/11 00:57:11;;;;;;;;;6.75;3.50;;;;;23.15;50.63;101313.72;5058330;28;51215;-48
2021/07/11 00:59:38;;;;;;;;;3.50;3.50;;;;;23.13;51.18;101315.84;5076106;28;51000;-51
2021/07/11 01:02:16;;;;;;;;;4.00;4.00;;;;;23.13;50.83;101313.06;5076137;28;51492;-50
2021/07/11 01:04:54;;;;;;;;;4.50;2.25;;;;;23.12;51.10;101308.63;5057790;28;51145;-50
2021/07/11 01:07:31;;;;;;;;;5.00;5.00;;;;;23.12;51.19;101305.84;5055821;28;51300;-51
2021/07/11 01:10:03;;;;;;;;;4.00;4.00;;;;;23.11;51.00;101304.19;5056061;28;51191;-50
2021/07/11 01:12:30;;;;;;;;;4.75;4.00;;;;;23.10;50.62;101296.97;5055493;28;51896;-48
2021/07/11 01:14:57;;;;;;;;;5.25;2.75;;;;;23.10;50.88;101297.81;5054833;28;50955;-50
2021/07/11 01:17:27;;;;;;;;;4.00;3.00;;;;;23.10;51.12;101296.97;5055597;28;50997;-50
2021/07/11 01:19:58;;;;;;;;;2.25;2.25;;;;;23.10;50.71;101291.44;5055768;28;51120;-47
2021/07/11 01:22:28;;;;;;;;;3.50;2.00;;;;;23.08;50.94;101290.81;5055419;28;52054;-49
2021/07/11 01:25:00;;;;;;;;;2.00;2.00;;;;;23.07;50.95;101286.38;5055558;28;51025;-49
2021/07/11 01:27:29;;;;;;;;;2.00;2.00;;;;;23.07;50.88;101289.13;5055513;28;51147;-49
2021/07/11 01:29:56;;;;;;;;;2.00;2.00;;;;;23.06;51.16;101291.06;5055875;28;50941;-48
2021/07/11 01:32:22;;;;;;;;;3.25;2.00;;;;;23.06;51.11;101290.22;5055362;28;52080;-52
2021/07/11 01:34:49;;;;;;;;;2.00;2.00;;;;;23.06;50.84;101288.28;5055293;28;50977;-50
2021/07/11 01:37:15;;;;;;;;;1.75;1.75;;;;;23.05;50.49;101289.38;5055404;28;51151;-51
2021/07/11 01:39:42;;;;;;;;;3.00;3.00;;;;;23.04;50.81;101280.25;5055375;28;51045;-50
2021/07/11 01:42:08;;;;;;;;;2.00;2.00;;;;;23.04;50.79;101284.91;5055346;28;51946;-47
2021/07/11 01:44:36;;;;;;;;;2.00;2.00;;;;;23.04;50.87;101277.47;5055462;28;51123;-48
2021/07/11 01:47:02;;;;;;;;;1.00;1.00;;;;;23.04;51.10;101279.41;5055133;28;51202;-50
2021/07/11 01:49:29;;;;;;;;;2.00;2.00;;;;;23.03;51.00;101281.31;5055393;28;50981;-50
2021/07/11 01:51:54;;;;;;;;;1.00;1.00;;;;;23.02;50.91;101276.84;5054854;28;51873;-48
2021/07/11 01:54:20;;;;;;;;;1.00;1.00;;;;;23.01;50.96;101272.38;5055266;28;51081;-49
2021/07/11 01:56:45;;;;;;;;;1.00;1.00;;;;;23.02;50.97;101270.47;5054995;28;51009;-49
2021/07/11 01:59:11;;;;;;;;;1.00;1.00;;;;;23.02;50.88;101278.75;5055463;28;51104;-48
2021/07/11 02:01:36;;;;;;;;;1.00;1.00;;;;;23.00;51.16;101276.22;5055333;28;51107;-51
2021/07/11 02:04:02;;;;;;;;;1.00;1.00;;;;;23.00;51.02;101275.38;5067077;28;51378;-45
2021/07/11 02:06:28;;;;;;;;;2.00;1.00;;;;;23.00;50.82;101272.63;5075045;28;51163;-47
2021/07/11 02:08:53;;;;;;;;;1.75;1.75;;;;;22.98;50.85;101270.09;5075518;28;51404;-47
2021/07/11 02:11:24;;;;;;;;;1.00;1.00;;;;;22.99;51.05;101274.53;5073396;28;52810;-46
2021/07/11 02:13:52;;;;;;;;;2.00;2.00;;;;;22.98;51.17;101267.31;5075111;28;51397;-46
2021/07/11 02:16:29;;;;;;;;;1.00;1.00;;;;;22.98;50.86;101272.84;5075255;28;51084;-49
2021/07/11 02:18:59;;;;;;;;;1.00;1.00;;;;;22.99;51.21;101274.53;5075624;28;51151;-48
2021/07/11 02:21:27;;;;;;;;;3.50;1.00;;;;;22.98;50.86;101267.31;5074530;28;51797;-52
2021/07/11 02:23:53;;;;;;;;;1.00;1.00;;;;;22.98;51.18;101264.56;5075246;28;51028;-51
2021/07/11 02:26:19;;;;;;;;;2.00;1.75;;;;;22.98;50.76;101272.84;5059108;28;51183;-46
2021/07/11 02:28:45;;;;;;;;;2.00;2.00;;;;;22.99;50.70;101269.00;5078918;28;51400;-52
2021/07/11 02:31:12;;;;;;;;;1.00;1.00;;;;;23.00;50.73;101258.81;5078369;28;51877;-50
2021/07/11 02:33:39;;;;;;;;;2.00;2.00;;;;;23.00;50.89;101265.19;5078513;28;51319;-47
2021/07/11 02:36:26;;;;;;;;;2.00;2.00;;;;;23.00;51.01;101267.09;5078286;28;51187;-51
2021/07/11 02:39:12;;;;;;;;;1.00;1.00;;;;;23.01;51.10;101271.53;5078237;28;51535;-47
2021/07/11 02:41:41;;;;;;;;;1.50;1.00;;;;;23.00;51.00;101275.38;5078355;28;51031;-47
2021/07/11 02:44:10;;;;;;;;;0.75;0.75;;;;;23.00;51.00;101275.38;5078490;28;51181;-47
2021/07/11 02:46:39;;;;;;;;;1.50;1.50;;;;;22.99;51.04;101277.31;5078756;28;51008;-48
2021/07/11 02:49:09;;;;;;;;;0.75;0.75;;;;;22.99;51.20;101273.69;5078671;28;50957;-46
2021/07/11 02:51:39;;;;;;;;;4.50;2.00;;;;;22.98;51.17;101275.63;5078116;28;52057;-51
2021/07/11 02:54:06;;;;;;;;;1.00;1.00;;;;;22.98;50.86;101280.28;5078538;28;50981;-47
2021/07/11 02:56:38;;;;;;;;;1.00;1.00;;;;;22.97;50.85;101281.38;5078007;28;51186;-49
2021/07/11 02:59:06;;;;;;;;;4.00;2.25;;;;;22.97;50.62;101276.69;5078529;28;51215;-50
2021/07/11 03:01:33;;;;;;;;;3.50;1.00;;;;;22.97;50.59;101279.44;5077865;28;50987;-49
2021/07/11 03:04:00;;;;;;;;;1.00;1.00;;;;;22.96;50.90;101272.25;5066311;28;50929;-50
2021/07/11 03:06:25;;;;;;;;;1.00;1.00;;;;;22.97;51.24;101276.69;5057581;28;51091;-50
2021/07/11 03:08:51;;;;;;;;;4.75;2.50;;;;;22.96;50.93;101266.72;5058157;28;51118;-50
2021/07/11 03:11:16;;;;;;;;;2.00;2.00;;;;;22.97;50.92;101265.66;5057177;28;51038;-51
2021/07/11 03:13:42;;;;;;;;;2.50;2.50;;;;;22.97;51.24;101276.69;5057897;28;50937;-50
2021/07/11 03:16:09;;;;;;;;;2.25;2.25;;;;;22.97;50.77;101271.16;5057732;28;51569;-48
2021/07/11 03:18:39;;;;;;;;;2.50;2.50;;;;;22.98;50.82;101283.91;5058324;28;50952;-51
2021/07/11 03:21:07;;;;;;;;;3.50;2.50;;;;;22.98;51.10;101289.44;5057384;28;51074;-47
2021/07/11 03:23:35;;;;;;;;;2.75;2.75;;;;;22.99;51.01;101281.97;5057769;28;50969;-48
2021/07/11 03:26:01;;;;;;;;;1.75;1.75;;;;;22.98;50.75;101288.59;5057449;28;51039;-51
2021/07/11 03:28:29;;;;;;;;;2.75;2.00;;;;;22.98;50.84;101288.59;5057590;28;51332;-48
2021/07/11 03:30:55;;;;;;;;;2.00;2.00;;;;;22.97;50.83;101284.97;5039208;28;51087;-52
2021/07/11 03:33:24;;;;;;;;;4.00;3.00;;;;;22.96;50.94;101280.53;5057525;28;51433;-50
2021/07/11 03:35:53;;;;;;;;;2.00;2.00;;;;;22.96;50.78;101283.28;5038969;28;51263;-48
2021/07/11 03:38:22;;;;;;;;;3.00;3.00;;;;;22.97;51.01;101286.91;5056930;28;50958;-51
2021/07/11 03:40:52;;;;;;;;;2.00;2.00;;;;;22.98;50.82;101294.97;5057464;28;51817;-49
2021/07/11 03:43:22;;;;;;;;;2.00;2.00;;;;;22.99;50.49;101296.63;5057507;28;51411;-47
2021/07/11 03:45:51;;;;;;;;;3.25;3.25;;;;;22.99;50.57;101299.41;5057346;28;51128;-50
2021/07/11 03:48:20;;;;;;;;;3.00;3.00;;;;;22.99;50.74;101302.16;5057197;28;51007;-51
2021/07/11 03:50:50;;;;;;;;;3.50;2.75;;;;;22.99;50.44;101307.69;5057093;28;51100;-50
2021/07/11 03:53:20;;;;;;;;;2.75;2.00;;;;;23.00;50.39;101314.91;5057349;28;51404;-50
2021/07/11 03:55:48;;;;;;;;;4.25;3.00;;;;;23.00;50.69;101305.78;5056722;28;51241;-51
2021/07/11 03:58:15;;;;;;;;;2.25;2.25;;;;;23.00;50.95;101309.38;5057586;28;51348;-48
2021/07/11 04:00:45;;;;;;;;;3.00;2.00;;;;;23.01;50.57;101311.06;5056665;28;51008;-51
2021/07/11 04:03:11;;;;;;;;;3.00;3.00;;;;;23.01;50.74;101310.22;5062166;28;51301;-50
2021/07/11 04:05:38;;;;;;;;;5.00;3.00;;;;;23.01;50.76;101307.47;5077113;28;51059;-51
2021/07/11 04:08:10;;;;;;;;;6.00;4.75;;;;;23.00;51.26;101306.63;5077365;28;51243;-51
2021/07/11 04:10:38;;;;;;;;;4.00;3.75;;;;;23.01;50.76;101312.97;5077080;28;51058;-47
2021/07/11 04:13:03;;;;;;;;;4.00;2.00;;;;;23.00;50.89;101312.13;5077047;28;50981;-50
2021/07/11 04:15:32;;;;;;;;;4.00;4.00;;;;;23.00;50.92;101309.38;5077113;28;51193;-49
2021/07/11 04:18:05;;;;;;;;;3.00;3.00;;;;;22.99;50.76;101313.22;5077197;28;51294;-44
2021/07/11 04:20:32;;;;;;;;;4.50;4.50;;;;;23.01;50.84;101324.03;5076946;28;51827;-52
2021/07/11 04:22:59;;;;;;;;;5.75;4.00;;;;;23.00;50.46;101309.38;5076870;28;51222;-48
2021/07/11 04:25:28;;;;;;;;;4.00;4.00;;;;;23.01;51.05;101318.50;5077080;28;51001;-50
2021/07/11 04:27:55;;;;;;;;;3.75;3.75;;;;;23.00;50.69;101314.06;5077154;28;51059;-48
2021/07/11 04:30:21;;;;;;;;;6.75;5.00;;;;;23.00;50.76;101309.38;5076712;28;50982;-49
2021/07/11 04:32:46;;;;;;;;;3.00;3.00;;;;;23.00;50.66;101312.13;5077061;28;50989;-50
2021/07/11 04:35:12;;;;;;;;;4.00;4.00;;;;;23.00;51.04;101311.31;5076904;28;51061;-49
2021/07/11 04:37:37;;;;;;;;;2.75;2.75;;;;;23.00;50.76;101314.91;5076874;28;51282;-48
2021/07/11 04:40:03;;;;;;;;;6.75;5.75;;;;;22.99;50.38;101310.47;5076466;28;51685;-51
2021/07/11 04:42:28;;;;;;;;;4.25;4.00;;;;;22.99;50.40;101313.22;5076976;28;51356;-52
2021/07/11 04:44:54;;;;;;;;;5.00;5.00;;;;;22.98;50.99;101322.59;5076705;28;50981;-47
2021/07/11 04:47:20;;;;;;;;;6.00;4.50;;;;;22.99;50.37;101328.94;5076730;28;51220;-45
2021/07/11 04:49:45;;;;;;;;;6.00;5.00;;;;;22.99;50.51;101328.94;5076668;28;51070;-49
2021/07/11 04:52:11;;;;;;;;;5.00;5.00;;;;;22.98;50.94;101330.88;5076189;28;50957;-49
2021/07/11 04:54:36;;;;;;;;;4.75;4.00;;;;;22.98;50.75;101328.09;5076582;28;51270;-48
2021/07/11 04:57:02;;;;;;;;;6.00;4.00;;;;;22.97;50.32;101331.94;5076422;28;51334;-49
2021/07/11 04:59:29;;;;;;;;;7.75;5.25;;;;;22.97;50.36;101333.88;5076263;28;52381;-49
2021/07/11 05:01:54;;;;;;;;;5.00;5.00;;;;;22.96;50.39;101334.94;5076415;28;51015;-51
2021/07/11 05:04:20;;;;;;;;;5.75;5.75;;;;;22.96;51.01;101330.25;5061265;28;51062;-49
2021/07/11 05:06:45;;;;;;;;;4.00;4.00;;;;;22.97;50.56;101331.09;5056055;28;50985;-50
2021/07/11 05:09:11;;;;;;;;;2.25;2.25;;;;;22.96;50.70;101329.41;5055879;28;51099;-49
2021/07/11 05:11:36;;;;;;;;;3.00;3.00;;;;;22.95;50.65;101328.56;5055745;28;52171;-48
2021/07/11 05:14:03;;;;;;;;;5.25;3.00;;;;;22.94;50.94;101337.94;5056127;28;51059;-48
2021/07/11 05:16:28;;;;;;;;;3.50;3.50;;;;;22.94;50.78;101332.41;5056298;28;51040;-47
2021/07/11 05:18:54;;;;;;;;;2.00;2.00;;;;;22.93;50.80;101330.72;5055916;28;51290;-51
2021/07/11 05:21:19;;;;;;;;;3.25;3.25;;;;;22.92;51.43;101329.00;5055637;28;51028;-49
2021/07/11 05:23:45;;;;;;;;;2.00;2.00;;;;;22.92;50.86;101331.78;5055983;28;50977;-49
2021/07/11 05:26:10;;;;;;;;;2.75;2.75;;;;;22.91;51.44;101327.31;5055822;28;51135;-49
2021/07/11 05:28:36;;;;;;;;;2.50;1.00;;;;;22.91;50.87;101332.00;5055731;28;51087;-50
2021/07/11 05:31:01;;;;;;;;;3.00;3.00;;;;;22.90;51.55;101333.91;5055796;28;51110;-47
2021/07/11 05:33:27;;;;;;;;;3.50;2.00;;;;;22.90;51.46;101342.22;5055904;28;51020;-49
2021/07/11 05:35:52;;;;;;;;;3.75;3.75;;;;;22.89;51.04;101345.19;5055687;28;51341;-48
2021/07/11 05:38:18;;;;;;;;;3.50;3.50;;;;;22.89;51.22;101348.81;5055403;28;51877;-50
2021/07/11 05:40:43;;;;;;;;;2.00;2.00;;;;;22.89;51.52;101351.56;5055826;28;51297;-48
2021/07/11 05:43:09;;;;;;;;;3.00;3.00;;;;;22.89;51.35;101353.47;5055872;28;51067;-48
2021/07/11 05:45:34;;;;;;;;;3.00;3.00;;;;;22.89;51.69;101350.72;5055972;28;50893;-46
2021/07/11 05:48:00;;;;;;;;;2.00;2.00;;;;;22.88;51.10;101351.81;5055039;28;54409;-49
2021/07/11 05:50:26;;;;;;;;;2.00;2.00;;;;;22.86;51.10;101343.75;5055551;28;51422;-47
2021/07/11 05:52:51;;;;;;;;;4.25;3.00;;;;;22.86;51.77;101335.47;5055397;28;51328;-49
2021/07/11 05:55:16;;;;;;;;;3.25;1.75;;;;;22.87;51.33;101339.06;5055548;28;51662;-49
2021/07/11 05:57:42;;;;;;;;;2.00;2.00;;;;;22.86;51.55;101338.22;5055193;28;51616;-51
2021/07/11 06:00:11;;;;;;;;;1.75;1.75;;;;;22.85;51.55;101339.28;5056348;28;51130;-52
2021/07/11 06:02:36;;;;;;;;;3.00;2.25;;;;;22.85;51.55;101336.53;5059362;28;51186;-49
2021/07/11 06:05:02;;;;;;;;;1.50;1.50;;;;;22.86;51.58;101334.63;5079484;28;51082;-45
2021/07/11 06:07:27;;;;;;;;;2.25;2.25;;;;;22.85;51.23;101333.75;5078577;28;51823;-50
2021/07/11 06:09:52;;;;;;;;;2.00;2.00;;;;;22.85;51.01;101338.44;5079225;28;51126;-48
2021/07/11 06:12:18;;;;;;;;;1.00;1.00;;;;;22.85;51.09;101332.94;5079012;28;51174;-47
2021/07/11 06:14:43;;;;;;;;;1.75;1.75;;;;;22.84;51.11;101334.84;5079464;28;51307;-50
2021/07/11 06:17:08;;;;;;;;;2.25;2.00;;;;;22.84;51.37;101337.59;5078969;28;51513;-48
2021/07/11 06:19:34;;;;;;;;;3.00;2.00;;;;;22.83;51.13;101335.88;5079123;28;50964;-45
2021/07/11 06:22:00;;;;;;;;;2.75;2.00;;;;;22.85;51.35;101344.81;5078851;28;50879;-47
2021/07/11 06:24:25;;;;;;;;;1.50;1.50;;;;;22.83;51.24;101349.69;5079181;28;51138;-47
2021/07/11 06:26:50;;;;;;;;;3.00;2.00;;;;;22.84;50.94;101354.19;5078468;28;51884;-48
2021/07/11 06:29:16;;;;;;;;;3.25;3.00;;;;;22.84;51.26;101342.28;5079092;28;50994;-49
2021/07/11 06:31:41;;;;;;;;;2.00;2.00;;;;;22.85;50.99;101353.09;5078798;28;51061;-48
2021/07/11 06:34:06;;;;;;;;;2.25;2.25;;;;;22.83;51.44;101349.69;5078880;28;50959;-48
2021/07/11 06:36:32;;;;;;;;;2.25;2.25;;;;;22.84;51.23;101345.03;5078174;28;51901;-48
2021/07/11 06:38:58;;;;;;;;;3.75;3.75;;;;;22.85;50.78;101352.25;5078598;28;50882;-46
2021/07/11 06:41:24;;;;;;;;;3.00;3.00;;;;;22.84;51.40;101348.66;5078807;28;51121;-46
2021/07/11 06:43:49;;;;;;;;;3.00;3.00;;;;;22.85;50.98;101349.50;5079176;28;51270;-46
2021/07/11 06:46:15;;;;;;;;;3.00;3.00;;;;;22.84;51.00;101343.13;5078369;28;52008;-47
2021/07/11 06:48:40;;;;;;;;;3.50;2.00;;;;;22.84;50.71;101343.13;5078195;28;50993;-50
2021/07/11 06:51:05;;;;;;;;;5.25;4.00;;;;;22.84;50.86;101336.75;5078561;28;51032;-49
2021/07/11 06:53:31;;;;;;;;;5.25;4.50;;;;;22.85;51.21;101346.75;5079025;28;51051;-52
2021/07/11 06:55:56;;;;;;;;;4.25;4.25;;;;;22.85;50.80;101338.44;5077910;28;51641;-47
2021/07/11 06:58:22;;;;;;;;;4.00;4.00;;;;;22.84;50.88;101336.75;5078652;28;51060;-49
2021/07/11 07:00:47;;;;;;;;;3.75;3.75;;;;;22.84;50.78;101342.28;5078510;28;51035;-52
2021/07/11 07:03:13;;;;;;;;;3.50;3.50;;;;;22.84;51.33;101343.13;5073232;28;51039;-51
2021/07/11 07:05:38;;;;;;;;;4.25;3.50;;;;;22.85;50.94;101342.06;5057583;28;51417;-46
2021/07/11 07:08:04;;;;;;;;;2.00;2.00;;;;;22.85;51.29;101341.22;5057995;28;51039;-50
2021/07/11 07:10:30;;;;;;;;;2.50;2.50;;;;;22.85;51.31;101342.06;5058113;28;50963;-49
2021/07/11 07:12:55;;;;;;;;;3.00;3.00;;;;;22.84;50.71;101343.13;5056862;28;50934;-51
2021/07/11 07:15:21;;;;;;;;;3.00;3.00;;;;;22.84;50.95;101342.28;5057723;28;50991;-48
2021/07/11 07:17:46;;;;;;;;;2.00;2.00;;;;;22.85;51.09;101350.34;5057778;28;50934;-50
2021/07/11 07:20:13;;;;;;;;;3.00;3.00;;;;;22.84;51.48;101348.66;5057956;28;51164;-46
2021/07/11 07:22:38;;;;;;;;;3.00;3.00;;;;;22.84;51.41;101354.19;5057926;28;50941;-49
2021/07/11 07:25:05;;;;;;;;;4.75;3.25;;;;;22.84;51.33;101353.34;5057158;28;51819;-49
2021/07/11 07:27:31;;;;;;;;;5.00;4.00;;;;;22.85;51.32;101349.50;5057816;28;51029;-51
2021/07/11 07:29:56;;;;;;;;;3.00;3.00;;;;;22.85;50.95;101355.03;5057739;28;51057;-48
2021/07/11 07:32:21;;;;;;;;;2.75;2.75;;;;;22.83;50.97;101357.97;5057655;28;51012;-50
2021/07/11 07:34:46;;;;;;;;;2.25;2.25;;;;;22.83;51.04;101355.22;5057470;28;51965;-47
2021/07/11 07:37:12;;;;;;;;;3.00;3.00;;;;;22.84;50.88;101354.19;5057267;28;50996;-49
2021/07/11 07:39:37;;;;;;;;;4.00;3.75;;;;;22.83;51.45;101352.47;5057237;28;51014;-48
2021/07/11 07:42:03;;;;;;;;;4.00;4.00;;;;;22.83;51.40;101357.97;5057480;28;51095;-52
2021/07/11 07:44:28;;;;;;;;;2.25;2.25;;;;;22.83;51.51;101360.75;5056821;28;51860;-51
2021/07/11 07:46:54;;;;;;;;;3.00;3.00;;;;;22.82;50.90;101356.25;5057179;28;51016;-49
2021/07/11 07:49:19;;;;;;;;;3.00;3.00;;;;;22.83;51.48;101363.50;5057411;28;51013;-47
2021/07/11 07:51:44;;;;;;;;;2.25;2.25;;;;;22.83;51.51;101360.75;5057168;28;51238;-49
2021/07/11 07:54:10;;;;;;;;;5.00;5.00;;;;;22.84;51.37;101364.38;5056875;28;51748;-50
2021/07/11 07:56:35;;;;;;;;;6.25;5.00;;;;;22.83;51.56;101363.50;5056761;28;51024;-46
2021/07/11 07:59:01;;;;;;;;;2.50;2.50;;;;;22.84;51.37;101365.22;5057225;28;51135;-48
2021/07/11 08:01:26;;;;;;;;;2.75;2.25;;;;;22.83;51.12;101366.28;5064603;28;51196;-50
2021/07/11 08:03:51;;;;;;;;;2.00;2.00;;;;;22.84;51.60;101364.38;5069197;28;51772;-49
2021/07/11 08:06:17;;;;;;;;;4.25;4.00;;;;;22.83;51.25;101366.28;5064943;28;51078;-48
2021/07/11 08:08:42;;;;;;;;;4.00;4.00;;;;;22.84;51.09;101359.69;5065177;28;51293;-50
2021/07/11 08:11:08;;;;;;;;;4.00;3.00;;;;;22.84;51.29;101358.84;5064420;28;51224;-46
2021/07/11 08:13:35;;;;;;;;;3.50;3.50;;;;;22.84;51.18;101356.94;5070371;28;51714;-47
2021/07/11 08:16:01;;;;;;;;;4.75;3.50;;;;;22.84;51.55;101365.22;5071618;28;51291;-50
2021/07/11 08:18:26;;;;;;;;;4.00;3.75;;;;;22.84;51.14;101358.84;5073472;28;51047;-50
2021/07/11 08:20:51;;;;;;;;;4.00;3.75;;;;;22.81;51.14;101365.63;5076235;28;51032;-49
2021/07/11 08:23:17;;;;;;;;;5.00;3.75;;;;;22.79;51.87;101356.72;5072362;28;51969;-47
2021/07/11 08:25:42;;;;;;;;;3.00;3.00;;;;;22.78;51.58;101357.81;5068628;28;51166;-50
2021/07/11 08:28:08;;;;;;;;;6.00;4.00;;;;;22.76;51.81;101359.94;5073355;28;51044;-48
2021/07/11 08:30:33;;;;;;;;;3.25;3.25;;;;;22.74;51.86;101351.88;5073695;28;51303;-48
2021/07/11 08:32:58;;;;;;;;;3.25;3.25;;;;;22.73;51.64;101352.13;5074524;28;51889;-48
2021/07/11 08:35:23;;;;;;;;;3.00;3.00;;;;;22.72;51.41;101339.38;5075798;28;51210;-48
2021/07/11 08:37:49;;;;;;;;;3.25;3.00;;;;;22.72;51.91;101344.91;5073699;28;51122;-49
2021/07/11 08:40:14;;;;;;;;;2.00;2.00;;;;;22.71;51.91;101346.78;5075623;28;51227;-48
2021/07/11 08:42:40;;;;;;;;;3.00;3.00;;;;;22.71;51.95;101349.56;5072887;28;51584;-49
2021/07/11 08:45:07;;;;;;;;;3.75;3.75;;;;;22.72;51.72;101340.22;5075194;28;51040;-50
2021/07/11 08:47:33;;;;;;;;;2.00;2.00;;;;;22.73;51.90;101343.84;5073814;28;51126;-50
2021/07/11 08:49:58;;;;;;;;;2.75;2.75;;;;;22.74;51.36;101348.28;5075213;28;51119;-47
2021/07/11 08:52:23;;;;;;;;;3.00;3.00;;;;;22.74;51.65;101348.28;5073879;28;50971;-50
2021/07/11 08:54:49;;;;;;;;;6.00;4.00;;;;;22.75;51.79;101349.97;5069777;27;51244;-51
2021/07/11 08:57:14;;;;;;;;;3.75;3.00;;;;;22.76;51.29;101352.50;5074356;28;50959;-51
2021/07/11 08:59:41;;;;;;;;;4.25;4.25;;;;;22.77;51.21;101339.53;5075147;28;51094;-48
2021/07/11 09:02:08;;;;;;;;;3.50;3.00;;;;;22.77;51.50;101343.16;5070889;28;52038;-45
2021/07/11 09:04:44;;;;;;;;;4.25;2.50;;;;;22.79;51.82;101339.31;5060486;28;51299;-46
2021/07/11 09:07:20;;;;;;;;;4.00;4.00;;;;;22.81;51.60;101345.44;5070754;28;51158;-45
2021/07/11 09:09:53;;;;;;;;;3.75;3.75;;;;;22.82;51.60;101350.75;5073256;28;50956;-45
2021/07/11 09:12:19;;;;;;;;;4.00;4.00;;;;;22.84;51.09;101354.19;5064555;28;51397;-48
2021/07/11 09:14:45;;;;;;;;;3.00;3.00;;;;;22.87;51.02;101342.66;5073778;28;51621;-47
2021/07/11 09:17:13;;;;;;;;;3.00;3.00;;;;;22.89;50.89;101350.72;5072334;28;50980;-50
2021/07/11 09:19:49;;;;;;;;;1.00;1.00;;;;;22.91;51.25;101346.66;5072938;28;51162;-48
2021/07/11 09:22:17;;;;;;;;;3.25;2.50;;;;;22.93;51.34;101350.06;5065233;28;51211;-46
2021/07/11 09:24:58;;;;;;;;;4.00;4.00;;;;;22.94;51.01;101354.50;5072564;28;51482;-47
2021/07/11 09:27:25;;;;;;;;;3.00;3.00;;;;;22.97;51.02;101347.69;5071718;28;51207;-46
2021/07/11 09:29:51;;;;;;;;;3.25;3.25;;;;;23.00;50.78;101347.22;5074406;28;50973;-49
2021/07/11 09:32:27;;;;;;;;;2.50;2.00;;;;;23.04;51.01;101345.72;5074539;28;52694;-51
2021/07/11 09:34:53;;;;;;;;;4.00;3.00;;;;;23.08;50.64;101351.63;5072085;28;51154;-50
2021/07/11 09:37:21;;;;;;;;;4.00;4.00;;;;;23.08;50.77;101346.94;5072146;28;51112;-48
2021/07/11 09:39:54;;;;;;;;;4.75;4.50;;;;;23.10;50.33;101342.03;5071394;28;51441;-49
2021/07/11 09:42:32;;;;;;;;;3.00;3.00;;;;;23.10;50.32;101349.47;5071383;28;51130;-50
2021/07/11 09:44:59;;;;;;;;;4.25;3.25;;;;;23.11;50.45;101345.63;5073424;28;51131;-48
2021/07/11 09:47:26;;;;;;;;;5.25;3.50;;;;;23.11;50.53;101352.00;5072469;28;51186;-49
2021/07/11 09:49:57;;;;;;;;;3.00;3.00;;;;;23.11;50.30;101351.16;5068915;28;51230;-50
2021/07/11 09:52:23;;;;;;;;;3.50;2.00;;;;;23.13;50.05;101349.00;5068332;28;51126;-49
2021/07/11 09:54:57;;;;;;;;;3.00;3.00;;;;;23.13;50.18;101346.25;5073765;28;51181;-51
2021/07/11 09:57:46;;;;;;;;;5.00;2.75;;;;;23.13;49.38;101335.19;5073068;28;51088;-49
2021/07/11 10:00:13;;;;;;;;;3.75;3.75;;;;;23.14;49.96;101346.03;5043598;28;51244;-47
2021/07/11 10:02:41;;;;;;;;;5.00;4.50;;;;;23.15;50.01;101344.13;5069329;28;51217;-49
2021/07/11 10:05:08;;;;;;;;;4.75;4.00;;;;;23.17;50.04;101333.66;5073937;28;51039;-49
2021/07/11 10:07:34;;;;;;;;;5.00;3.75;;;;;23.19;50.20;101340.66;5071534;28;51015;-49
2021/07/11 10:10:01;;;;;;;;;3.75;3.75;;;;;23.23;50.20;101339.09;5071468;28;51444;-50
2021/07/11 10:12:27;;;;;;;;;3.75;3.75;;;;;23.24;49.82;101331.66;5069975;28;51211;-47
2021/07/11 10:14:53;;;;;;;;;3.00;3.00;;;;;23.26;49.80;101327.63;5070828;28;51151;-49
2021/07/11 10:17:19;;;;;;;;;4.00;4.00;;;;;23.28;49.60;101330.16;5071735;28;51074;-46
2021/07/11 10:19:50;;;;;;;;;3.00;3.00;;;;;23.28;49.89;101328.22;5068006;28;51986;-48
2021/07/11 10:22:16;;;;;;;;;5.25;4.00;;;;;23.30;49.52;101320.53;5072188;28;51978;-50
2021/07/11 10:24:45;;;;;;;;;4.75;4.75;;;;;23.31;49.75;101325.00;5069886;28;51119;-49
2021/07/11 10:27:27;;;;;;;;;6.50;5.25;;;;;23.32;49.29;101323.06;5072030;28;51289;-50
2021/07/11 10:29:56;;;;;;;;;4.00;4.00;;;;;23.33;49.44;101322.00;5071218;28;51696;-51
2021/07/11 10:32:33;;;;;;;;;3.00;3.00;;;;;23.33;48.93;101319.22;5069571;28;51169;-47
2021/07/11 10:35:19;;;;;;;;;4.75;4.00;;;;;23.34;48.87;101315.38;5050964;28;51150;-49
2021/07/11 10:37:53;;;;;;;;;3.00;3.00;;;;;23.33;49.14;101314.53;5069150;28;51738;-51
2021/07/11 10:40:20;;;;;;;;;6.75;5.75;;;;;23.34;48.97;101320.91;5070705;28;51347;-48
2021/07/11 10:42:47;;;;;;;;;5.25;5.00;;;;;23.36;49.03;101326.25;5069919;28;51435;-50
2021/07/11 10:45:14;;;;;;;;;5.50;5.00;;;;;23.35;48.66;101324.56;5067944;28;51192;-52
2021/07/11 10:47:40;;;;;;;;;4.75;4.75;;;;;23.37;48.57;101325.16;5072800;28;51339;-48
2021/07/11 10:50:23;;;;;;;;;6.50;4.50;;;;;23.37;48.40;101323.25;5077382;28;51122;-50
2021/07/11 10:52:49;;;;;;;;;5.00;4.75;;;;;23.38;48.07;101322.16;5072265;28;51988;-51
2021/07/11 10:55:15;;;;;;;;;4.00;4.00;;;;;23.39;48.17;101317.47;5071588;28;51519;-51
2021/07/11 10:57:40;;;;;;;;;5.00;4.00;;;;;23.40;47.84;101306.19;5075370;27;51347;-47
2021/07/11 11:00:10;;;;;;;;;5.00;5.00;;;;;23.41;47.91;101316.16;5052666;28;51083;-48
2021/07/11 11:02:36;;;;;;;;;5.00;5.00;;;;;23.42;48.46;101309.56;5076023;28;51105;-49
2021/07/11 11:05:12;;;;;;;;;4.00;4.00;;;;;23.42;48.23;101312.31;5073287;28;51080;-46
2021/07/11 11:07:41;;;;;;;;;4.25;4.25;;;;;23.44;48.44;101320.38;5077061;28;51082;-48
2021/07/11 11:10:37;;;;;;;;;4.25;4.25;;;;;23.44;48.33;101312.09;5077460;28;51286;-47
2021/07/11 11:13:20;;;;;;;;;5.50;3.75;;;;;23.45;47.98;101311.03;5059300;28;51062;-48
2021/07/11 11:15:45;;;;;;;;;7.00;6.00;;;;;23.44;47.61;101304.63;5077029;28;51679;-50
2021/07/11 11:18:20;;;;;;;;;3.00;3.00;;;;;23.44;47.45;101314.84;5074446;28;51322;-48
2021/07/11 11:20:53;;;;;;;;;6.00;6.00;;;;;23.44;47.99;101310.16;5064792;28;51191;-44
2021/07/11 11:23:19;;;;;;;;;5.50;3.50;;;;;23.43;47.54;101302.94;5071500;28;52911;-48
2021/07/11 11:25:45;;;;;;;;;4.50;4.50;;;;;23.44;47.42;101303.78;5068925;28;51260;-49